createdAt,value
2022-09-11T00:02:26.351Z,2.53
2022-09-11T00:07:30.953Z,2.40
2022-09-11T00:12:33.899Z,2.27
2022-09-11T00:17:37.520Z,2.07
2022-09-11T00:22:41.883Z,2.10
2022-09-11T00:27:44.778Z,2.30
2022-09-11T00:32:49.130Z,2.30
2022-09-11T00:37:53.360Z,3.43
2022-09-11T00:42:57.488Z,2.43
2022-09-11T00:48:01.215Z,2.60
2022-09-11T00:53:09.872Z,2.80
2022-09-11T00:58:17.875Z,2.45
2022-09-11T01:03:20.931Z,3.05
2022-09-11T01:08:25.469Z,2.67
2022-09-11T01:13:34.380Z,2.33
2022-09-11T01:18:42.161Z,2.10
2022-09-11T01:24:09.180Z,2.60
2022-09-11T01:29:18.905Z,2.80
2022-09-11T01:34:29.618Z,2.67
2022-09-11T01:39:39.744Z,2.53
2022-09-11T01:44:48.988Z,2.57
2022-09-11T01:49:57.287Z,2.67
2022-09-11T01:55:06.492Z,3.07
2022-09-11T02:00:14.079Z,3.23
2022-09-11T02:05:30.649Z,4.33
2022-09-11T02:10:40.634Z,3.40
2022-09-11T02:15:50.458Z,3.07
2022-09-11T02:20:54.387Z,2.50
2022-09-11T02:25:57.422Z,2.53
2022-09-11T02:31:02.422Z,3.13
2022-09-11T02:36:22.254Z,2.70
2022-09-11T02:41:31.199Z,3.07
2022-09-11T02:46:55.116Z,2.67
2022-09-11T02:52:05.954Z,2.90
2022-09-11T02:57:14.892Z,2.80
2022-09-11T03:02:21.015Z,2.53
2022-09-11T03:07:26.607Z,2.40
2022-09-11T03:12:30.016Z,3.37
2022-09-11T03:17:34.311Z,3.07
2022-09-11T03:22:39.724Z,3.27
2022-09-11T03:27:43.079Z,5.70
2022-09-11T03:32:50.183Z,3.73
2022-09-11T03:37:55.490Z,3.63
2022-09-11T03:42:59.551Z,4.13
2022-09-11T03:48:04.288Z,3.40
2022-09-11T03:53:08.025Z,3.47
2022-09-11T03:58:11.577Z,4.10
2022-09-11T04:03:20.161Z,3.30
2022-09-11T04:08:23.113Z,4.00
2022-09-11T04:13:30.959Z,3.70
2022-09-11T04:18:39.556Z,2.77
2022-09-11T04:23:45.229Z,3.47
2022-09-11T04:28:48.692Z,3.30
2022-09-11T04:33:57.515Z,3.50
2022-09-11T04:39:03.582Z,3.33
2022-09-11T04:44:07.399Z,3.40
2022-09-11T04:49:18.467Z,3.70
2022-09-11T04:54:23.560Z,4.27
2022-09-11T04:59:28.584Z,3.57
2022-09-11T05:04:39.955Z,3.30
2022-09-11T05:09:43.405Z,3.63
2022-09-11T05:14:46.966Z,3.53
2022-09-11T05:19:51.222Z,3.73
2022-09-11T05:24:58.358Z,3.57
2022-09-11T05:30:01.944Z,4.93
2022-09-11T05:35:07.660Z,5.10
2022-09-11T05:40:12.524Z,4.37
2022-09-11T05:45:16.824Z,5.43
2022-09-11T05:50:23.024Z,4.50
2022-09-11T05:55:26.072Z,4.47
2022-09-11T06:00:29.732Z,4.87
2022-09-11T06:05:35.154Z,5.07
2022-09-11T06:10:47.290Z,4.70
2022-09-11T06:15:50.994Z,4.90
2022-09-11T06:20:59.974Z,5.27
2022-09-11T06:26:05.608Z,5.50
2022-09-11T06:31:16.290Z,6.17
2022-09-11T06:36:23.039Z,6.93
2022-09-11T06:41:28.292Z,7.37
2022-09-11T06:46:40.318Z,7.63
2022-09-11T06:51:47.912Z,8.30
2022-09-11T06:56:51.027Z,8.50
2022-09-11T07:01:55.331Z,6.77
2022-09-11T07:07:00.026Z,7.57
2022-09-11T07:12:04.568Z,7.07
2022-09-11T07:17:08.006Z,6.50
2022-09-11T07:22:14.609Z,6.53
2022-09-11T07:27:19.259Z,6.43
2022-09-11T07:32:23.102Z,5.97
2022-09-11T07:37:27.548Z,8.93
2022-09-11T07:42:33.948Z,7.35
2022-09-11T07:47:38.474Z,6.57
2022-09-11T07:52:43.407Z,6.88
2022-09-11T07:57:47.125Z,6.97
2022-09-11T08:02:50.279Z,7.45
2022-09-11T08:08:05.125Z,6.78
2022-09-11T08:13:09.708Z,7.28
2022-09-11T08:18:13.219Z,6.65
2022-09-11T08:23:18.736Z,6.90
2022-09-11T08:28:21.743Z,7.30
2022-09-11T08:33:24.903Z,6.38
2022-09-11T08:38:30.606Z,8.90
2022-09-11T08:43:39.404Z,6.70
2022-09-11T08:48:58.035Z,6.30
2022-09-11T08:54:04.719Z,7.80
2022-09-11T08:59:22.760Z,5.38
2022-09-11T09:04:45.466Z,4.78
2022-09-11T09:09:56.850Z,5.63
2022-09-11T09:15:09.998Z,6.68
2022-09-11T09:20:17.483Z,5.80
2022-09-11T09:25:24.143Z,6.40
2022-09-11T09:30:35.547Z,4.68
2022-09-11T09:35:41.775Z,5.22
2022-09-11T09:40:59.532Z,4.85
2022-09-11T09:46:14.638Z,5.05
2022-09-11T09:51:17.567Z,4.28
2022-09-11T09:56:23.677Z,4.75
2022-09-11T10:01:48.235Z,4.25
2022-09-11T10:06:53.591Z,4.13
2022-09-11T10:12:02.623Z,4.68
2022-09-11T10:17:05.759Z,5.82
2022-09-11T10:22:24.194Z,4.50
2022-09-11T10:27:29.515Z,4.25
2022-09-11T10:32:37.136Z,4.00
2022-09-11T10:37:40.228Z,3.45
2022-09-11T10:42:46.378Z,10.75
2022-09-11T10:47:49.545Z,10.73
2022-09-11T10:53:04.568Z,6.25
2022-09-11T10:58:11.046Z,5.50
2022-09-11T11:03:19.215Z,5.32
2022-09-11T11:08:41.427Z,5.18
2022-09-11T11:14:02.235Z,5.13
2022-09-11T11:19:24.378Z,5.22
2022-09-11T11:24:42.375Z,5.57
2022-09-11T11:30:04.326Z,6.68
2022-09-11T11:35:31.987Z,5.78
2022-09-11T11:40:41.006Z,6.43
2022-09-11T11:45:49.739Z,5.55
2022-09-11T11:50:55.294Z,4.22
2022-09-11T11:56:05.847Z,4.68
2022-09-11T12:01:15.936Z,3.65
2022-09-11T12:06:18.844Z,2.85
2022-09-11T12:11:30.015Z,3.83
2022-09-11T12:16:36.592Z,2.83
2022-09-11T12:22:04.072Z,3.63
2022-09-11T12:27:44.946Z,2.83
2022-09-11T12:32:51.154Z,4.65
2022-09-11T12:37:59.054Z,4.68
2022-09-11T12:43:28.191Z,4.03
2022-09-11T12:48:38.729Z,4.00
2022-09-11T12:53:47.242Z,3.40
2022-09-11T12:58:55.958Z,3.47
2022-09-11T13:04:03.965Z,3.72
2022-09-11T13:09:08.154Z,3.90
2022-09-11T13:14:48.041Z,3.40
2022-09-11T13:19:52.631Z,3.30
2022-09-11T13:25:07.354Z,3.47
2022-09-11T13:30:14.196Z,3.65
2022-09-11T13:35:23.327Z,2.95
2022-09-11T13:40:31.177Z,2.95
2022-09-11T13:45:34.481Z,3.30
2022-09-11T13:50:38.908Z,3.20
2022-09-11T13:55:46.796Z,3.08
2022-09-11T14:00:51.741Z,5.18
2022-09-11T14:05:57.878Z,2.80
2022-09-11T14:11:03.415Z,2.70
2022-09-11T14:16:09.670Z,4.25
2022-09-11T14:21:17.242Z,3.10
2022-09-11T14:26:22.147Z,2.50
2022-09-11T14:31:35.898Z,2.35
2022-09-11T14:36:44.092Z,2.28
2022-09-11T14:41:47.502Z,2.40
2022-09-11T14:46:50.472Z,2.22
2022-09-11T14:52:00.910Z,2.50
2022-09-11T14:57:15.242Z,2.75
2022-09-11T15:02:23.493Z,2.25
2022-09-11T15:07:28.239Z,2.45
2022-09-11T15:12:31.106Z,2.92
2022-09-11T15:17:35.239Z,3.85
2022-09-11T15:22:39.863Z,2.65
2022-09-11T15:27:42.752Z,3.10
2022-09-11T15:32:45.837Z,3.33
2022-09-11T15:37:50.943Z,2.83
2022-09-11T15:42:56.964Z,2.65
2022-09-11T15:48:00.229Z,2.53
2022-09-11T15:53:04.470Z,2.60
2022-09-11T15:58:07.360Z,2.88
2022-09-11T16:03:10.949Z,3.65
2022-09-11T16:08:15.757Z,2.95
2022-09-11T16:13:19.650Z,4.40
2022-09-11T16:18:22.579Z,4.50
2022-09-11T16:23:27.141Z,3.33
2022-09-11T16:28:30.071Z,7.70
2022-09-11T16:33:34.248Z,10.40
2022-09-11T16:38:40.182Z,7.32
2022-09-11T16:43:45.594Z,3.80
2022-09-11T16:48:53.247Z,7.32
2022-09-11T16:53:58.401Z,2.75
2022-09-11T16:59:01.707Z,2.45
2022-09-11T17:04:04.797Z,2.15
2022-09-11T17:09:09.102Z,1.88
2022-09-11T17:14:12.873Z,1.98
2022-09-11T17:19:15.802Z,1.95
2022-09-11T17:24:21.682Z,2.30
2022-09-11T17:29:24.784Z,2.63
2022-09-11T17:34:27.690Z,2.35
2022-09-11T17:39:31.939Z,2.15
2022-09-11T17:44:34.915Z,2.08
2022-09-11T17:49:37.822Z,1.83
2022-09-11T17:54:42.272Z,3.10
2022-09-11T17:59:45.172Z,1.80
2022-09-11T18:04:48.994Z,1.63
2022-09-11T18:09:56.329Z,2.30
2022-09-11T18:15:00.248Z,2.13
2022-09-11T18:20:04.032Z,2.20
2022-09-11T18:25:09.826Z,1.83
2022-09-11T18:30:13.079Z,2.38
2022-09-11T18:35:17.089Z,2.03
2022-09-11T18:40:21.731Z,2.20
2022-09-11T18:45:25.145Z,2.45
2022-09-11T18:50:28.193Z,2.70
2022-09-11T18:55:33.117Z,2.10
2022-09-11T19:00:37.756Z,3.40
2022-09-11T19:05:40.745Z,2.63
2022-09-11T19:10:45.060Z,3.33
2022-09-11T19:15:56.108Z,2.67
2022-09-11T19:21:02.950Z,1.85
2022-09-11T19:26:09.619Z,2.08
2022-09-11T19:31:14.449Z,2.50
2022-09-11T19:36:20.016Z,3.38
2022-09-11T19:41:26.019Z,1.73
2022-09-11T19:46:30.474Z,2.30
2022-09-11T19:51:35.952Z,2.80
2022-09-11T19:56:40.842Z,2.30
2022-09-11T20:01:44.240Z,1.90
2022-09-11T20:09:32.129Z,1.90
2022-09-11T20:14:38.341Z,1.70
2022-09-11T20:19:44.742Z,1.70
2022-09-11T20:24:49.970Z,1.98
2022-09-11T20:29:52.885Z,1.60
2022-09-11T20:34:55.785Z,1.58
2022-09-11T20:40:00.676Z,2.20
2022-09-11T20:45:03.773Z,2.40
2022-09-11T20:50:08.739Z,2.13
2022-09-11T20:55:12.998Z,1.70
2022-09-11T21:00:16.429Z,1.60
2022-09-11T21:05:19.349Z,1.63
2022-09-11T21:10:23.573Z,2.13
2022-09-11T21:15:26.526Z,2.10
2022-09-11T21:20:29.417Z,1.70
2022-09-11T21:25:38.339Z,2.43
2022-09-11T21:30:41.244Z,1.80
2022-09-11T21:35:44.200Z,1.87
2022-09-11T21:40:48.669Z,2.07
2022-09-11T21:45:51.577Z,1.90
2022-09-11T21:50:54.763Z,2.00
2022-09-11T21:55:58.983Z,1.60
2022-09-11T22:01:05.897Z,1.73
2022-09-11T22:06:10.684Z,1.60
2022-09-11T22:11:15.891Z,1.70
2022-09-11T22:16:20.062Z,1.50
2022-09-11T22:21:23.095Z,1.63
2022-09-11T22:26:30.045Z,2.20
2022-09-11T22:31:33.261Z,1.57
2022-09-11T22:36:36.448Z,1.53
2022-09-11T22:41:40.712Z,1.50
2022-09-11T22:46:48.669Z,1.77
2022-09-11T22:51:51.757Z,1.53
2022-09-11T22:56:55.975Z,2.53
2022-09-11T23:01:59.655Z,1.40
2022-09-11T23:07:17.780Z,1.60
2022-09-11T23:12:21.987Z,2.67
2022-09-11T23:17:24.907Z,1.50
2022-09-11T23:22:28.388Z,1.43
2022-09-11T23:27:32.847Z,1.60
2022-09-11T23:32:39.854Z,1.53
2022-09-11T23:37:45.503Z,1.57
2022-09-11T23:42:49.909Z,1.50
2022-09-11T23:47:52.916Z,1.67
2022-09-11T23:52:55.858Z,2.23
2022-09-11T23:58:01.624Z,1.63
